createdAt,value
2023-01-18T00:01:19.244Z,7.78
2023-01-18T00:04:08.394Z,7.70
2023-01-18T00:06:57.273Z,6.80
2023-01-18T00:09:45.348Z,4.93
2023-01-18T00:12:34.921Z,6.10
2023-01-18T00:15:22.535Z,5.55
2023-01-18T00:18:09.950Z,6.15
2023-01-18T00:21:02.837Z,8.45
2023-01-18T00:23:50.409Z,5.78
2023-01-18T00:26:38.901Z,5.22
2023-01-18T00:29:26.742Z,6.18
2023-01-18T00:32:14.719Z,5.55
2023-01-18T00:35:07.163Z,5.97
2023-01-18T00:37:56.104Z,7.40
2023-01-18T00:40:46.210Z,7.30
2023-01-18T00:43:41.771Z,5.32
2023-01-18T00:46:29.295Z,6.10
2023-01-18T00:49:16.858Z,7.45
2023-01-18T00:52:04.461Z,7.20
2023-01-18T00:54:53.625Z,6.70
2023-01-18T00:57:41.874Z,9.35
2023-01-18T01:00:29.405Z,7.88
2023-01-18T01:03:17.451Z,7.13
2023-01-18T01:06:23.075Z,8.90
2023-01-18T01:09:10.751Z,6.78
2023-01-18T01:12:17.845Z,7.13
2023-01-18T01:15:24.604Z,9.25
2023-01-18T01:18:31.145Z,10.07
2023-01-18T01:21:36.273Z,8.95
2023-01-18T01:24:41.364Z,6.40
2023-01-18T01:27:30.203Z,7.55
2023-01-18T01:30:18.119Z,7.38
2023-01-18T01:33:05.830Z,8.30
2023-01-18T01:35:57.794Z,6.78
2023-01-18T01:38:45.535Z,6.90
2023-01-18T01:41:35.858Z,8.25
2023-01-18T01:44:51.203Z,7.75
2023-01-18T01:47:43.443Z,7.82
2023-01-18T01:50:38.767Z,11.50
2023-01-18T01:53:26.208Z,9.95
2023-01-18T01:56:14.293Z,8.55
2023-01-18T01:59:04.715Z,8.18
2023-01-18T02:01:53.805Z,7.18
2023-01-18T02:04:44.266Z,7.70
2023-01-18T02:07:33.717Z,9.20
2023-01-18T02:10:22.013Z,7.75
2023-01-18T02:13:12.001Z,6.95
2023-01-18T02:16:14.695Z,7.28
2023-01-18T02:19:31.838Z,8.43
2023-01-18T02:22:45.187Z,7.88
2023-01-18T02:26:27.985Z,7.80
2023-01-18T02:29:19.359Z,9.90
2023-01-18T02:32:24.995Z,7.53
2023-01-18T02:35:22.832Z,7.90
2023-01-18T02:38:14.710Z,7.78
2023-01-18T02:41:18.990Z,8.07
2023-01-18T02:44:24.246Z,7.55
2023-01-18T02:47:13.657Z,9.07
2023-01-18T02:50:01.381Z,6.32
2023-01-18T02:52:51.104Z,7.72
2023-01-18T02:55:49.365Z,8.80
2023-01-18T02:58:45.791Z,7.40
2023-01-18T03:01:41.489Z,8.07
2023-01-18T03:04:37.016Z,8.52
2023-01-18T03:07:31.351Z,6.70
2023-01-18T03:10:19.237Z,7.10
2023-01-18T03:13:16.739Z,6.32
2023-01-18T03:16:13.102Z,8.82
2023-01-18T03:19:20.746Z,8.70
2023-01-18T03:22:10.290Z,5.78
2023-01-18T03:24:57.062Z,8.23
2023-01-18T03:28:07.326Z,8.60
2023-01-18T03:31:17.636Z,8.68
2023-01-18T03:34:17.932Z,7.93
2023-01-18T03:37:12.941Z,7.60
2023-01-18T03:40:05.931Z,9.38
2023-01-18T03:43:03.110Z,7.75
2023-01-18T03:45:53.589Z,6.30
2023-01-18T03:48:41.458Z,7.50
2023-01-18T03:51:47.676Z,7.45
2023-01-18T03:54:47.762Z,7.38
2023-01-18T03:57:46.177Z,8.48
2023-01-18T04:00:33.885Z,8.30
2023-01-18T04:03:21.257Z,7.07
2023-01-18T04:06:09.639Z,7.43
2023-01-18T04:08:57.308Z,6.85
2023-01-18T04:11:46.316Z,8.68
2023-01-18T04:14:35.357Z,7.95
2023-01-18T04:17:22.963Z,8.15
2023-01-18T04:20:12.410Z,6.40
2023-01-18T04:23:00.191Z,6.78
2023-01-18T04:25:51.034Z,7.20
2023-01-18T04:28:40.235Z,6.78
2023-01-18T04:31:28.114Z,7.07
2023-01-18T04:34:16.014Z,7.30
2023-01-18T04:37:03.765Z,6.45
2023-01-18T04:39:51.076Z,9.07
2023-01-18T04:42:39.196Z,7.38
2023-01-18T04:45:28.343Z,7.45
2023-01-18T04:48:15.787Z,5.32
2023-01-18T04:51:03.391Z,7.45
2023-01-18T04:53:52.086Z,7.80
2023-01-18T04:56:40.505Z,5.75
2023-01-18T04:59:28.442Z,7.47
2023-01-18T05:02:17.361Z,8.18
2023-01-18T05:05:05.963Z,7.38
2023-01-18T05:07:54.029Z,8.35
2023-01-18T05:10:41.447Z,10.70
2023-01-18T05:13:29.171Z,8.32
2023-01-18T05:16:20.666Z,7.88
2023-01-18T05:19:09.841Z,6.25
2023-01-18T05:21:57.545Z,6.85
2023-01-18T05:24:45.204Z,6.95
2023-01-18T05:27:34.169Z,5.78
2023-01-18T05:30:21.941Z,8.07
2023-01-18T05:33:10.345Z,7.38
2023-01-18T05:35:59.028Z,6.13
2023-01-18T05:38:48.808Z,6.53
2023-01-18T05:41:36.295Z,5.57
2023-01-18T05:44:24.356Z,6.97
2023-01-18T05:47:12.439Z,7.90
2023-01-18T05:50:00.500Z,7.50
2023-01-18T05:52:49.519Z,6.63
2023-01-18T05:55:37.278Z,7.78
2023-01-18T05:58:25.465Z,7.95
2023-01-18T06:01:13.720Z,8.52
2023-01-18T06:04:01.734Z,7.72
2023-01-18T06:06:49.396Z,8.60
2023-01-18T06:09:38.389Z,7.00
2023-01-18T06:12:25.890Z,6.88
2023-01-18T06:15:15.579Z,6.63
2023-01-18T06:18:05.298Z,9.57
2023-01-18T06:20:55.423Z,7.22
2023-01-18T06:23:43.395Z,8.45
2023-01-18T06:26:32.219Z,10.45
2023-01-18T06:29:19.649Z,7.78
2023-01-18T06:32:07.324Z,7.22
2023-01-18T06:34:54.853Z,9.98
2023-01-18T06:37:42.212Z,7.82
2023-01-18T06:40:30.367Z,11.68
2023-01-18T06:43:19.550Z,8.15
2023-01-18T06:46:11.540Z,7.53
2023-01-18T06:48:59.274Z,8.47
2023-01-18T06:51:46.896Z,8.35
2023-01-18T06:54:34.356Z,10.57
2023-01-18T06:57:21.966Z,8.70
2023-01-18T07:00:13.763Z,9.05
2023-01-18T07:03:01.460Z,6.90
2023-01-18T07:05:49.383Z,8.35
2023-01-18T07:08:37.168Z,10.68
2023-01-18T07:11:24.752Z,9.57
2023-01-18T07:14:18.215Z,8.20
2023-01-18T07:17:07.202Z,9.90
2023-01-18T07:19:54.706Z,9.93
2023-01-18T07:22:42.161Z,10.63
2023-01-18T07:25:30.339Z,8.43
2023-01-18T07:28:19.758Z,9.85
2023-01-18T07:31:08.373Z,9.20
2023-01-18T07:33:57.280Z,12.05
2023-01-18T07:36:45.356Z,8.73
2023-01-18T07:39:32.838Z,11.90
2023-01-18T07:42:20.546Z,12.77
2023-01-18T07:45:09.524Z,10.55
2023-01-18T07:47:57.186Z,9.57
2023-01-18T07:50:53.582Z,10.23
2023-01-18T07:53:43.557Z,12.75
2023-01-18T07:56:31.037Z,10.27
2023-01-18T07:59:18.598Z,10.25
2023-01-18T08:02:06.089Z,12.35
2023-01-18T08:04:53.595Z,10.55
2023-01-18T08:07:43.159Z,12.52
2023-01-18T08:10:33.321Z,11.27
2023-01-18T08:13:20.692Z,10.00
2023-01-18T08:16:12.357Z,11.18
2023-01-18T08:19:00.168Z,12.85
2023-01-18T08:21:49.146Z,10.18
2023-01-18T08:24:38.273Z,11.95
2023-01-18T08:27:27.304Z,12.45
2023-01-18T08:30:15.727Z,10.93
2023-01-18T08:33:04.843Z,8.80
2023-01-18T08:35:52.457Z,10.57
2023-01-18T08:38:40.556Z,10.55
2023-01-18T08:41:30.512Z,15.50
2023-01-18T08:44:19.014Z,10.13
2023-01-18T08:47:06.565Z,11.43
2023-01-18T08:49:53.951Z,11.82
2023-01-18T08:52:41.820Z,10.50
2023-01-18T08:55:30.658Z,13.85
2023-01-18T08:58:19.794Z,12.88
2023-01-18T09:01:08.350Z,11.13
2023-01-18T09:03:58.142Z,11.20
2023-01-18T09:06:47.311Z,11.48
2023-01-18T09:09:35.120Z,10.15
2023-01-18T09:12:22.705Z,11.70
2023-01-18T09:15:11.935Z,10.32
2023-01-18T09:18:05.107Z,10.50
2023-01-18T09:20:54.328Z,7.43
2023-01-18T09:23:43.641Z,9.60
2023-01-18T09:26:31.589Z,8.32
2023-01-18T09:29:19.311Z,8.20
2023-01-18T09:32:09.324Z,10.75
2023-01-18T09:34:57.102Z,8.85
2023-01-18T09:37:45.249Z,10.32
2023-01-18T09:40:45.109Z,8.02
2023-01-18T09:43:39.309Z,8.77
2023-01-18T09:46:28.198Z,10.55
2023-01-18T09:49:26.865Z,7.68
2023-01-18T09:52:34.122Z,9.15
2023-01-18T09:55:33.215Z,7.85
2023-01-18T09:58:39.249Z,7.85
2023-01-18T10:01:33.331Z,8.68
2023-01-18T10:04:33.579Z,7.38
2023-01-18T10:07:24.371Z,6.80
2023-01-18T10:10:19.116Z,8.07
2023-01-18T10:13:39.971Z,8.45
2023-01-18T10:16:27.782Z,7.18
2023-01-18T10:19:23.428Z,7.60
2023-01-18T10:22:23.008Z,6.90
2023-01-18T10:25:21.611Z,7.35
2023-01-18T10:28:28.512Z,6.30
2023-01-18T10:31:39.595Z,8.30
2023-01-18T10:34:36.379Z,9.73
2023-01-18T10:37:38.730Z,7.38
2023-01-18T10:40:26.336Z,6.57
2023-01-18T10:43:20.322Z,8.63
2023-01-18T10:46:15.139Z,6.85
2023-01-18T10:49:04.394Z,7.47
2023-01-18T10:51:52.314Z,6.63
2023-01-18T10:54:51.222Z,6.45
2023-01-18T10:57:45.593Z,9.02
2023-01-18T11:00:41.732Z,8.05
2023-01-18T11:03:30.110Z,6.88
2023-01-18T11:06:20.506Z,5.72
2023-01-18T11:09:43.791Z,5.82
2023-01-18T11:12:43.294Z,6.97
2023-01-18T11:15:32.135Z,7.80
2023-01-18T11:18:19.626Z,6.03
2023-01-18T11:21:12.285Z,5.57
2023-01-18T11:24:07.671Z,6.68
2023-01-18T11:27:01.665Z,5.95
2023-01-18T11:29:50.433Z,4.55
2023-01-18T11:32:41.336Z,4.45
2023-01-18T11:35:34.113Z,6.53
2023-01-18T11:41:21.099Z,4.15
2023-01-18T11:44:22.591Z,5.15
2023-01-18T11:47:22.644Z,4.93
2023-01-18T11:50:29.229Z,5.80
2023-01-18T11:53:41.472Z,5.80
2023-01-18T11:56:37.721Z,3.58
2023-01-18T11:59:31.026Z,6.53
2023-01-18T12:05:53.085Z,6.15
2023-01-18T12:09:04.437Z,4.70
2023-01-18T12:12:18.868Z,4.90
2023-01-18T12:15:35.925Z,5.35
2023-01-18T12:19:11.350Z,5.75
2023-01-18T12:22:27.818Z,6.45
2023-01-18T12:25:47.755Z,7.25
2023-01-18T12:28:59.019Z,6.60
2023-01-18T12:32:06.201Z,8.35
2023-01-18T12:35:24.894Z,7.68
2023-01-18T12:38:23.025Z,8.25
2023-01-18T12:41:45.528Z,7.28
2023-01-18T12:45:04.312Z,10.07
2023-01-18T12:48:08.742Z,10.27
2023-01-18T12:51:00.264Z,9.65
2023-01-18T12:53:55.642Z,9.77
2023-01-18T12:56:47.380Z,8.77
2023-01-18T12:59:44.159Z,8.15
2023-01-18T13:02:35.762Z,7.78
2023-01-18T13:05:36.936Z,9.07
2023-01-18T13:08:44.871Z,8.55
2023-01-18T13:11:37.125Z,9.98
2023-01-18T13:14:34.325Z,6.85
2023-01-18T13:17:32.485Z,9.45
2023-01-18T13:20:36.249Z,10.45
2023-01-18T13:23:40.062Z,9.30
2023-01-18T13:26:31.827Z,8.25
2023-01-18T13:29:28.391Z,7.80
2023-01-18T13:32:33.182Z,9.65
2023-01-18T13:35:31.609Z,8.25
2023-01-18T13:38:36.269Z,7.93
2023-01-18T13:41:31.378Z,8.55
2023-01-18T13:44:32.458Z,7.35
2023-01-18T13:47:55.875Z,6.90
2023-01-18T13:50:47.338Z,7.40
2023-01-18T13:53:51.057Z,6.00
2023-01-18T13:56:40.168Z,7.25
2023-01-18T13:59:33.524Z,6.95
2023-01-18T14:02:29.044Z,7.63
2023-01-18T14:05:26.959Z,5.05
2023-01-18T14:08:29.090Z,8.32
2023-01-18T14:11:28.735Z,5.15
2023-01-18T14:14:30.838Z,6.97
2023-01-18T14:17:19.064Z,6.03
2023-01-18T14:21:15.140Z,6.78
2023-01-18T14:24:33.896Z,5.03
2023-01-18T14:27:26.150Z,6.28
2023-01-18T14:30:27.315Z,9.02
2023-01-18T14:33:21.680Z,5.93
2023-01-18T14:36:21.589Z,7.85
2023-01-18T14:39:13.624Z,6.47
2023-01-18T14:42:06.702Z,5.97
2023-01-18T14:47:47.756Z,6.93
2023-01-18T14:50:41.190Z,4.60
2023-01-18T14:53:33.410Z,5.85
2023-01-18T14:56:23.971Z,9.15
2023-01-18T14:59:24.955Z,6.90
2023-01-18T15:02:22.399Z,6.50
2023-01-18T15:05:16.939Z,7.32
2023-01-18T15:08:05.067Z,8.30
2023-01-18T15:10:53.687Z,6.85
2023-01-18T15:13:51.070Z,5.85
2023-01-18T15:16:40.579Z,9.00
2023-01-18T15:19:39.627Z,7.50
2023-01-18T15:22:33.035Z,5.15
2023-01-18T15:25:27.160Z,8.73
2023-01-18T15:28:23.606Z,6.80
2023-01-18T15:31:16.328Z,6.80
2023-01-18T15:34:05.565Z,5.70
2023-01-18T15:36:53.630Z,9.60
2023-01-18T15:39:51.265Z,5.32
2023-01-18T15:42:44.760Z,9.38
2023-01-18T15:45:37.734Z,7.07
2023-01-18T15:48:29.293Z,6.75
2023-01-18T15:51:18.299Z,8.27
2023-01-18T15:54:06.283Z,5.30
2023-01-18T15:56:56.968Z,6.45
2023-01-18T15:59:44.804Z,6.50
2023-01-18T16:02:33.006Z,7.47
2023-01-18T16:05:23.989Z,7.90
2023-01-18T16:08:21.227Z,8.32
2023-01-18T16:11:31.096Z,8.60
2023-01-18T16:14:33.379Z,6.68
2023-01-18T16:17:24.367Z,9.80
2023-01-18T16:20:17.749Z,9.85
2023-01-18T16:23:15.704Z,12.45
2023-01-18T16:26:06.678Z,11.35
2023-01-18T16:28:54.804Z,12.55
2023-01-18T16:31:45.049Z,12.68
2023-01-18T16:34:32.683Z,12.10
2023-01-18T16:37:21.139Z,11.40
2023-01-18T16:40:11.001Z,12.80
2023-01-18T16:43:06.456Z,10.82
2023-01-18T16:45:58.933Z,9.48
2023-01-18T16:48:46.746Z,7.32
2023-01-18T16:51:34.546Z,7.32
2023-01-18T16:54:22.780Z,10.02
2023-01-18T16:57:20.287Z,9.75
2023-01-18T17:00:18.964Z,11.10
2023-01-18T17:03:06.423Z,7.03
2023-01-18T17:05:55.307Z,8.00
2023-01-18T17:08:43.020Z,8.40
2023-01-18T17:11:30.621Z,8.50
2023-01-18T17:14:18.459Z,9.90
2023-01-18T17:17:08.895Z,6.80
2023-01-18T17:19:56.651Z,10.30
2023-01-18T17:22:44.206Z,11.38
2023-01-18T17:25:32.451Z,8.48
2023-01-18T17:28:21.118Z,8.68
2023-01-18T17:31:09.295Z,9.68
2023-01-18T17:33:58.912Z,8.38
2023-01-18T17:36:46.898Z,8.40
2023-01-18T17:39:44.029Z,10.13
2023-01-18T17:42:37.663Z,15.63
2023-01-18T17:45:25.225Z,10.68
2023-01-18T17:48:12.805Z,13.13
2023-01-18T17:51:01.890Z,13.60
2023-01-18T17:53:49.480Z,10.98
2023-01-18T17:56:37.718Z,12.85
2023-01-18T17:59:25.575Z,12.55
2023-01-18T18:02:13.086Z,11.57
2023-01-18T18:05:00.908Z,11.38
2023-01-18T18:07:50.517Z,12.52
2023-01-18T18:10:38.060Z,11.30
2023-01-18T18:13:27.868Z,13.23
2023-01-18T18:16:18.808Z,11.23
2023-01-18T18:19:07.476Z,13.98
2023-01-18T18:21:55.465Z,11.20
2023-01-18T18:24:46.772Z,13.60
2023-01-18T18:27:44.896Z,12.35
2023-01-18T18:30:33.011Z,13.50
2023-01-18T18:33:22.049Z,11.60
2023-01-18T18:36:10.496Z,13.40
2023-01-18T18:39:01.824Z,12.93
2023-01-18T18:41:56.611Z,11.30
2023-01-18T18:44:47.198Z,9.98
2023-01-18T18:47:38.943Z,14.20
2023-01-18T18:50:27.123Z,10.70
2023-01-18T18:53:15.203Z,12.80
2023-01-18T18:56:02.893Z,11.60
2023-01-18T18:58:51.719Z,11.05
2023-01-18T19:01:39.437Z,13.70
2023-01-18T19:04:27.713Z,14.00
2023-01-18T19:07:17.090Z,13.00
2023-01-18T19:10:04.994Z,11.60
2023-01-18T19:12:52.761Z,13.70
2023-01-18T19:15:47.018Z,16.13
2023-01-18T19:18:37.446Z,13.85
2023-01-18T19:21:25.746Z,15.10
2023-01-18T19:24:13.196Z,14.55
2023-01-18T19:27:00.710Z,16.13
2023-01-18T19:29:48.191Z,12.45
2023-01-18T19:32:37.058Z,13.57
2023-01-18T19:35:27.856Z,12.20
2023-01-18T19:38:16.969Z,13.63
2023-01-18T19:41:04.432Z,11.88
2023-01-18T19:43:51.816Z,14.70
2023-01-18T19:46:39.240Z,15.38
2023-01-18T19:49:28.274Z,14.45
2023-01-18T19:52:15.969Z,14.77
2023-01-18T19:55:03.785Z,10.55
2023-01-18T19:57:52.221Z,13.48
2023-01-18T20:00:41.347Z,13.27
2023-01-18T20:03:29.457Z,12.32
2023-01-18T20:06:20.748Z,14.15
2023-01-18T20:09:18.623Z,10.52
2023-01-18T20:12:07.816Z,11.63
2023-01-18T20:14:55.187Z,13.15
2023-01-18T20:17:42.517Z,14.40
2023-01-18T20:20:32.700Z,15.00
2023-01-18T20:23:21.913Z,10.13
2023-01-18T20:26:09.772Z,11.65
2023-01-18T20:28:57.606Z,14.32
2023-01-18T20:31:50.076Z,12.25
2023-01-18T20:34:38.088Z,12.35
2023-01-18T20:37:25.574Z,12.73
2023-01-18T20:40:15.222Z,9.73
2023-01-18T20:43:03.620Z,10.77
2023-01-18T20:46:01.721Z,9.75
2023-01-18T20:48:49.543Z,9.00
2023-01-18T20:51:40.235Z,8.70
2023-01-18T20:54:28.175Z,12.10
2023-01-18T20:57:18.093Z,8.70
2023-01-18T21:00:07.015Z,9.25
2023-01-18T21:02:54.667Z,9.02
2023-01-18T21:05:43.885Z,10.45
2023-01-18T21:08:31.347Z,10.95
2023-01-18T21:11:18.561Z,9.88
2023-01-18T21:14:08.204Z,12.70
2023-01-18T21:16:56.046Z,11.23
2023-01-18T21:19:46.071Z,12.27
2023-01-18T21:22:34.971Z,12.98
2023-01-18T21:25:23.013Z,13.23
2023-01-18T21:28:10.621Z,11.70
2023-01-18T21:30:59.628Z,9.10
2023-01-18T21:33:50.232Z,13.07
2023-01-18T21:36:38.562Z,14.50
2023-01-18T21:39:26.258Z,10.98
2023-01-18T21:42:31.716Z,12.70
2023-01-18T21:45:41.574Z,11.20
2023-01-18T21:48:32.607Z,13.27
2023-01-18T21:51:44.440Z,11.75
2023-01-18T21:54:33.009Z,12.02
2023-01-18T21:57:20.572Z,10.38
2023-01-18T22:00:15.016Z,11.88
2023-01-18T22:03:03.493Z,11.32
2023-01-18T22:05:55.541Z,8.23
2023-01-18T22:08:43.307Z,11.25
2023-01-18T22:11:31.078Z,11.93
2023-01-18T22:14:18.644Z,10.75
2023-01-18T22:17:06.227Z,13.05
2023-01-18T22:19:58.878Z,10.60
2023-01-18T22:22:51.274Z,11.70
2023-01-18T22:25:39.038Z,11.95
2023-01-18T22:28:28.504Z,10.25
2023-01-18T22:31:20.117Z,9.60
2023-01-18T22:34:11.573Z,9.45
2023-01-18T22:37:01.239Z,11.23
2023-01-18T22:39:53.625Z,8.20
2023-01-18T22:42:41.214Z,10.95
2023-01-18T22:45:28.749Z,9.05
2023-01-18T22:48:19.159Z,9.35
2023-01-18T22:51:08.747Z,9.10
2023-01-18T22:53:58.867Z,10.90
2023-01-18T22:56:50.928Z,11.90
2023-01-18T22:59:41.173Z,9.10
2023-01-18T23:02:28.671Z,11.02
2023-01-18T23:05:16.423Z,9.40
2023-01-18T23:08:04.269Z,8.07
2023-01-18T23:10:57.639Z,10.02
2023-01-18T23:14:09.986Z,11.68
2023-01-18T23:17:14.909Z,7.88
2023-01-18T23:20:02.335Z,9.43
2023-01-18T23:22:49.771Z,8.70
2023-01-18T23:25:37.110Z,8.57
2023-01-18T23:28:27.603Z,11.85
2023-01-18T23:31:19.198Z,11.68
2023-01-18T23:34:06.873Z,10.05
2023-01-18T23:36:55.170Z,10.25
2023-01-18T23:40:00.781Z,9.20
2023-01-18T23:43:05.855Z,9.23
2023-01-18T23:46:11.117Z,10.90
2023-01-18T23:49:17.489Z,11.43
2023-01-18T23:52:22.472Z,8.80
2023-01-18T23:55:10.898Z,7.45
2023-01-18T23:57:59.605Z,10.77
